sensor_id;sensor_type;location;lat;lon;timestamp;pressure;altitude;pressure_sealevel;temperature;humidity
81162;BME280;70638;-33.792;151.032;2023-11-21T00:00:43;101254.72;;;19.93;97.98
81162;BME280;70638;-33.792;151.032;2023-11-21T00:03:17;101255.45;;;19.98;97.77
81162;BME280;70638;-33.792;151.032;2023-11-21T00:05:44;101251.68;;;20.01;98.93
81162;BME280;70638;-33.792;151.032;2023-11-21T00:08:14;101250.80;;;20.04;99.15
81162;BME280;70638;-33.792;151.032;2023-11-21T00:10:44;101252.69;;;20.02;98.38
81162;BME280;70638;-33.792;151.032;2023-11-21T00:13:15;101245.83;;;19.91;98.89
81162;BME280;70638;-33.792;151.032;2023-11-21T00:15:45;101242.39;;;19.82;100.00
81162;BME280;70638;-33.792;151.032;2023-11-21T00:18:16;101244.01;;;19.67;98.20
81162;BME280;70638;-33.792;151.032;2023-11-21T00:20:46;101244.72;;;19.75;99.03
81162;BME280;70638;-33.792;151.032;2023-11-21T00:23:16;101238.11;;;19.86;98.92
81162;BME280;70638;-33.792;151.032;2023-11-21T00:25:47;101239.05;;;20.02;98.29
81162;BME280;70638;-33.792;151.032;2023-11-21T00:28:17;101237.58;;;20.03;95.16
81162;BME280;70638;-33.792;151.032;2023-11-21T00:30:48;101231.46;;;20.12;96.35
81162;BME280;70638;-33.792;151.032;2023-11-21T00:33:18;101232.34;;;20.09;96.56
81162;BME280;70638;-33.792;151.032;2023-11-21T00:35:49;101228.58;;;19.95;97.08
81162;BME280;70638;-33.792;151.032;2023-11-21T00:38:42;101225.65;;;19.85;98.17
81162;BME280;70638;-33.792;151.032;2023-11-21T00:40:50;101225.68;;;19.81;99.87
81162;BME280;70638;-33.792;151.032;2023-11-21T00:43:21;101223.67;;;19.69;96.82
81162;BME280;70638;-33.792;151.032;2023-11-21T00:45:52;101224.94;;;19.72;96.62
81162;BME280;70638;-33.792;151.032;2023-11-21T00:48:22;101222.55;;;19.88;96.49
81162;BME280;70638;-33.792;151.032;2023-11-21T00:50:53;101218.61;;;20.08;95.45
81162;BME280;70638;-33.792;151.032;2023-11-21T00:53:22;101220.67;;;20.30;94.24
81162;BME280;70638;-33.792;151.032;2023-11-21T00:55:59;101216.89;;;20.42;92.73
81162;BME280;70638;-33.792;151.032;2023-11-21T00:58:34;101213.16;;;20.74;91.87
81162;BME280;70638;-33.792;151.032;2023-11-21T01:00:55;101210.37;;;20.91;90.30
81162;BME280;70638;-33.792;151.032;2023-11-21T01:03:24;101206.88;;;20.97;87.37
81162;BME280;70638;-33.792;151.032;2023-11-21T01:05:56;101205.85;;;21.06;86.03
81162;BME280;70638;-33.792;151.032;2023-11-21T01:08:27;101203.00;;;21.30;86.02
81162;BME280;70638;-33.792;151.032;2023-11-21T01:10:57;101196.64;;;21.50;87.49
81162;BME280;70638;-33.792;151.032;2023-11-21T01:13:32;101200.58;;;21.56;84.60
81162;BME280;70638;-33.792;151.032;2023-11-21T01:15:58;101198.27;;;21.48;84.63
81162;BME280;70638;-33.792;151.032;2023-11-21T01:18:32;101202.73;;;21.22;85.15
81162;BME280;70638;-33.792;151.032;2023-11-21T01:21:03;101195.84;;;21.07;85.77
81162;BME280;70638;-33.792;151.032;2023-11-21T01:23:30;101195.31;;;21.06;87.41
81162;BME280;70638;-33.792;151.032;2023-11-21T01:26:00;101196.72;;;21.02;89.14
81162;BME280;70638;-33.792;151.032;2023-11-21T01:28:31;101192.99;;;20.67;91.41
81162;BME280;70638;-33.792;151.032;2023-11-21T01:31:02;101190.38;;;20.47;93.86
81162;BME280;70638;-33.792;151.032;2023-11-21T01:33:32;101190.88;;;20.51;96.04
81162;BME280;70638;-33.792;151.032;2023-11-21T01:36:03;101190.05;;;20.46;93.73
81162;BME280;70638;-33.792;151.032;2023-11-21T01:38:34;101188.00;;;20.61;96.22
81162;BME280;70638;-33.792;151.032;2023-11-21T01:41:08;101184.09;;;20.84;96.05
81162;BME280;70638;-33.792;151.032;2023-11-21T01:43:34;101181.43;;;20.93;92.78
81162;BME280;70638;-33.792;151.032;2023-11-21T01:46:04;101176.09;;;20.98;92.40
81162;BME280;70638;-33.792;151.032;2023-11-21T01:48:35;101173.98;;;21.32;93.70
81162;BME280;70638;-33.792;151.032;2023-11-21T01:51:04;101174.72;;;21.36;88.78
81162;BME280;70638;-33.792;151.032;2023-11-21T01:53:35;101173.66;;;21.17;90.12
81162;BME280;70638;-33.792;151.032;2023-11-21T01:56:07;101171.77;;;20.95;90.11
81162;BME280;70638;-33.792;151.032;2023-11-21T01:58:37;101172.22;;;21.09;91.42
81162;BME280;70638;-33.792;151.032;2023-11-21T02:01:07;101175.20;;;21.16;89.63
81162;BME280;70638;-33.792;151.032;2023-11-21T02:03:37;101169.27;;;21.19;87.67
81162;BME280;70638;-33.792;151.032;2023-11-21T02:06:08;101169.59;;;21.27;87.38
81162;BME280;70638;-33.792;151.032;2023-11-21T02:08:40;101167.80;;;21.36;85.28
81162;BME280;70638;-33.792;151.032;2023-11-21T02:11:08;101167.83;;;21.32;84.30
81162;BME280;70638;-33.792;151.032;2023-11-21T02:13:39;101161.11;;;21.38;85.77
81162;BME280;70638;-33.792;151.032;2023-11-21T02:16:11;101168.59;;;21.63;81.77
81162;BME280;70638;-33.792;151.032;2023-11-21T02:18:40;101164.56;;;22.02;81.13
81162;BME280;70638;-33.792;151.032;2023-11-21T02:21:12;101160.18;;;22.28;80.24
81162;BME280;70638;-33.792;151.032;2023-11-21T02:23:53;101161.14;;;22.56;78.17
81162;BME280;70638;-33.792;151.032;2023-11-21T02:26:12;101163.16;;;22.68;77.57
81162;BME280;70638;-33.792;151.032;2023-11-21T02:28:41;101164.52;;;22.87;78.07
81162;BME280;70638;-33.792;151.032;2023-11-21T02:31:11;101169.72;;;22.85;77.06
81162;BME280;70638;-33.792;151.032;2023-11-21T02:33:42;101160.66;;;22.99;75.91
81162;BME280;70638;-33.792;151.032;2023-11-21T02:36:13;101157.21;;;23.16;75.53
81162;BME280;70638;-33.792;151.032;2023-11-21T02:38:44;101153.62;;;23.29;74.75
81162;BME280;70638;-33.792;151.032;2023-11-21T02:41:15;101152.33;;;23.44;72.37
81162;BME280;70638;-33.792;151.032;2023-11-21T02:43:44;101152.48;;;23.30;73.13
81162;BME280;70638;-33.792;151.032;2023-11-21T02:46:21;101147.09;;;23.37;74.12
81162;BME280;70638;-33.792;151.032;2023-11-21T02:48:46;101147.36;;;23.29;74.06
81162;BME280;70638;-33.792;151.032;2023-11-21T02:51:44;101152.22;;;23.13;75.68
81162;BME280;70638;-33.792;151.032;2023-11-21T02:53:48;101147.09;;;23.33;79.75
81162;BME280;70638;-33.792;151.032;2023-11-21T02:56:18;101144.67;;;23.49;77.01
81162;BME280;70638;-33.792;151.032;2023-11-21T02:58:49;101138.54;;;23.43;74.68
81162;BME280;70638;-33.792;151.032;2023-11-21T03:01:19;101136.40;;;23.39;73.63
81162;BME280;70638;-33.792;151.032;2023-11-21T03:03:53;101135.34;;;23.64;75.06
81162;BME280;70638;-33.792;151.032;2023-11-21T03:06:21;101135.92;;;23.61;74.71
81162;BME280;70638;-33.792;151.032;2023-11-21T03:08:52;101128.31;;;23.67;71.50
81162;BME280;70638;-33.792;151.032;2023-11-21T03:11:22;101123.05;;;23.74;71.28
81162;BME280;70638;-33.792;151.032;2023-11-21T03:13:53;101116.78;;;24.02;69.90
81162;BME280;70638;-33.792;151.032;2023-11-21T03:16:24;101112.81;;;24.20;69.55
81162;BME280;70638;-33.792;151.032;2023-11-21T03:18:55;101110.67;;;24.43;68.91
81162;BME280;70638;-33.792;151.032;2023-11-21T03:21:25;101114.66;;;24.33;67.29
81162;BME280;70638;-33.792;151.032;2023-11-21T03:23:56;101105.66;;;24.14;67.56
81162;BME280;70638;-33.792;151.032;2023-11-21T03:26:27;101102.30;;;24.46;69.01
81162;BME280;70638;-33.792;151.032;2023-11-21T03:28:57;101091.25;;;24.97;65.73
81162;BME280;70638;-33.792;151.032;2023-11-21T03:31:32;101088.09;;;25.17;64.43
81162;BME280;70638;-33.792;151.032;2023-11-21T03:33:58;101087.52;;;24.83;64.82
81162;BME280;70638;-33.792;151.032;2023-11-21T03:36:29;101088.23;;;24.53;65.03
81162;BME280;70638;-33.792;151.032;2023-11-21T03:39:00;101082.31;;;24.57;65.00
81162;BME280;70638;-33.792;151.032;2023-11-21T03:41:31;101082.86;;;24.77;64.31
81162;BME280;70638;-33.792;151.032;2023-11-21T03:44:01;101074.69;;;24.59;63.71
81162;BME280;70638;-33.792;151.032;2023-11-21T03:46:32;101071.78;;;24.62;66.07
81162;BME280;70638;-33.792;151.032;2023-11-21T03:49:03;101067.88;;;24.93;64.62
81162;BME280;70638;-33.792;151.032;2023-11-21T03:51:33;101064.31;;;24.92;64.54
81162;BME280;70638;-33.792;151.032;2023-11-21T03:54:14;101058.72;;;25.15;64.99
81162;BME280;70638;-33.792;151.032;2023-11-21T03:56:34;101066.45;;;24.91;64.17
81162;BME280;70638;-33.792;151.032;2023-11-21T03:59:06;101061.12;;;24.88;65.46
81162;BME280;70638;-33.792;151.032;2023-11-21T04:01:35;101042.28;;;24.71;66.66
81162;BME280;70638;-33.792;151.032;2023-11-21T04:04:06;101035.97;;;24.75;66.27
81162;BME280;70638;-33.792;151.032;2023-11-21T04:06:38;101039.37;;;24.33;64.54
81162;BME280;70638;-33.792;151.032;2023-11-21T04:09:08;101037.16;;;24.08;66.52
81162;BME280;70638;-33.792;151.032;2023-11-21T04:11:39;101040.40;;;23.89;65.90
81162;BME280;70638;-33.792;151.032;2023-11-21T04:14:15;101034.48;;;24.06;66.80
81162;BME280;70638;-33.792;151.032;2023-11-21T04:16:40;101031.55;;;24.06;65.66
81162;BME280;70638;-33.792;151.032;2023-11-21T04:19:11;101028.00;;;24.20;65.44
81162;BME280;70638;-33.792;151.032;2023-11-21T04:21:44;101024.34;;;24.70;65.47
81162;BME280;70638;-33.792;151.032;2023-11-21T04:24:12;101022.44;;;24.65;64.63
81162;BME280;70638;-33.792;151.032;2023-11-21T04:26:42;101020.78;;;24.42;65.05
81162;BME280;70638;-33.792;151.032;2023-11-21T04:29:12;101023.70;;;24.27;66.45
81162;BME280;70638;-33.792;151.032;2023-11-21T04:31:43;101017.80;;;24.04;66.85
81162;BME280;70638;-33.792;151.032;2023-11-21T04:34:15;101014.23;;;24.43;66.33
81162;BME280;70638;-33.792;151.032;2023-11-21T04:36:45;101004.23;;;24.46;66.67
81162;BME280;70638;-33.792;151.032;2023-11-21T04:39:15;100993.78;;;24.91;65.56
81162;BME280;70638;-33.792;151.032;2023-11-21T04:41:45;100992.78;;;25.35;66.26
81162;BME280;70638;-33.792;151.032;2023-11-21T04:44:16;100988.97;;;25.17;64.87
81162;BME280;70638;-33.792;151.032;2023-11-21T04:46:47;100992.76;;;25.00;65.01
81162;BME280;70638;-33.792;151.032;2023-11-21T04:49:17;100989.90;;;24.83;66.93
81162;BME280;70638;-33.792;151.032;2023-11-21T04:51:47;100996.02;;;24.82;66.37
81162;BME280;70638;-33.792;151.032;2023-11-21T04:54:18;100988.22;;;24.68;66.55
81162;BME280;70638;-33.792;151.032;2023-11-21T04:56:55;100986.56;;;24.50;66.94
81162;BME280;70638;-33.792;151.032;2023-11-21T04:59:19;100994.06;;;24.52;66.20
81162;BME280;70638;-33.792;151.032;2023-11-21T05:01:50;100982.47;;;24.55;66.10
81162;BME280;70638;-33.792;151.032;2023-11-21T05:04:21;100991.54;;;24.59;66.14
81162;BME280;70638;-33.792;151.032;2023-11-21T05:06:51;100992.33;;;24.15;68.21
81162;BME280;70638;-33.792;151.032;2023-11-21T05:09:22;100992.20;;;24.19;68.69
81162;BME280;70638;-33.792;151.032;2023-11-21T05:11:53;100987.28;;;24.07;68.73
81162;BME280;70638;-33.792;151.032;2023-11-21T05:14:23;100986.31;;;24.08;69.32
81162;BME280;70638;-33.792;151.032;2023-11-21T05:16:54;100990.12;;;23.97;69.31
81162;BME280;70638;-33.792;151.032;2023-11-21T05:19:24;100995.08;;;23.85;68.78
81162;BME280;70638;-33.792;151.032;2023-11-21T05:21:54;100992.16;;;24.05;68.78
81162;BME280;70638;-33.792;151.032;2023-11-21T05:24:26;100986.19;;;24.16;67.73
81162;BME280;70638;-33.792;151.032;2023-11-21T05:26:55;100985.91;;;24.11;67.13
81162;BME280;70638;-33.792;151.032;2023-11-21T05:29:30;100984.43;;;23.98;68.34
81162;BME280;70638;-33.792;151.032;2023-11-21T05:31:56;100977.19;;;24.05;67.94
81162;BME280;70638;-33.792;151.032;2023-11-21T05:34:28;100971.55;;;24.42;66.60
81162;BME280;70638;-33.792;151.032;2023-11-21T05:37:00;100970.16;;;24.12;66.99
81162;BME280;70638;-33.792;151.032;2023-11-21T05:39:31;100976.45;;;24.10;67.33
81162;BME280;70638;-33.792;151.032;2023-11-21T05:42:01;100976.38;;;23.81;68.53
81162;BME280;70638;-33.792;151.032;2023-11-21T05:44:30;100975.14;;;23.40;69.85
81162;BME280;70638;-33.792;151.032;2023-11-21T05:47:01;100970.72;;;23.34;70.62
81162;BME280;70638;-33.792;151.032;2023-11-21T05:49:32;100961.27;;;23.27;71.36
81162;BME280;70638;-33.792;151.032;2023-11-21T05:52:02;100960.57;;;23.25;71.54
81162;BME280;70638;-33.792;151.032;2023-11-21T05:54:32;100953.08;;;23.19;70.94
81162;BME280;70638;-33.792;151.032;2023-11-21T05:57:03;100945.09;;;23.27;71.96
81162;BME280;70638;-33.792;151.032;2023-11-21T05:59:34;100941.15;;;23.33;71.10
81162;BME280;70638;-33.792;151.032;2023-11-21T06:02:07;100932.35;;;23.38;71.13
81162;BME280;70638;-33.792;151.032;2023-11-21T06:04:36;100927.84;;;23.54;70.37
81162;BME280;70638;-33.792;151.032;2023-11-21T06:07:07;100926.44;;;23.74;69.72
81162;BME280;70638;-33.792;151.032;2023-11-21T06:09:37;100925.73;;;23.65;68.82
81162;BME280;70638;-33.792;151.032;2023-11-21T06:12:12;100925.00;;;23.44;68.38
81162;BME280;70638;-33.792;151.032;2023-11-21T06:14:38;100922.31;;;23.42;69.73
81162;BME280;70638;-33.792;151.032;2023-11-21T06:17:08;100917.78;;;23.72;68.49
81162;BME280;70638;-33.792;151.032;2023-11-21T06:19:39;100921.63;;;23.55;68.74
81162;BME280;70638;-33.792;151.032;2023-11-21T06:22:09;100915.09;;;23.63;68.50
81162;BME280;70638;-33.792;151.032;2023-11-21T06:24:40;100919.55;;;23.43;68.79
81162;BME280;70638;-33.792;151.032;2023-11-21T06:27:11;100921.27;;;23.25;69.80
81162;BME280;70638;-33.792;151.032;2023-11-21T06:29:42;100920.69;;;23.24;69.56
81162;BME280;70638;-33.792;151.032;2023-11-21T06:32:12;100923.27;;;23.35;70.51
81162;BME280;70638;-33.792;151.032;2023-11-21T06:34:49;100921.23;;;23.48;70.51
81162;BME280;70638;-33.792;151.032;2023-11-21T06:37:14;100917.23;;;23.42;68.11
81162;BME280;70638;-33.792;151.032;2023-11-21T06:39:44;100919.16;;;23.45;69.15
81162;BME280;70638;-33.792;151.032;2023-11-21T06:42:15;100924.91;;;23.68;69.79
81162;BME280;70638;-33.792;151.032;2023-11-21T06:44:45;100930.92;;;23.37;69.05
81162;BME280;70638;-33.792;151.032;2023-11-21T06:47:16;100937.19;;;23.16;69.42
81162;BME280;70638;-33.792;151.032;2023-11-21T06:49:47;100939.66;;;22.81;70.80
81162;BME280;70638;-33.792;151.032;2023-11-21T06:52:16;100941.69;;;22.71;71.52
81162;BME280;70638;-33.792;151.032;2023-11-21T06:54:47;100944.97;;;22.58;71.97
81162;BME280;70638;-33.792;151.032;2023-11-21T06:57:17;100948.09;;;22.48;72.09
81162;BME280;70638;-33.792;151.032;2023-11-21T06:59:48;100952.33;;;22.37;71.42
81162;BME280;70638;-33.792;151.032;2023-11-21T07:02:21;100954.17;;;22.40;72.36
81162;BME280;70638;-33.792;151.032;2023-11-21T07:04:49;100959.45;;;22.41;72.51
81162;BME280;70638;-33.792;151.032;2023-11-21T07:07:20;100971.53;;;22.41;72.57
81162;BME280;70638;-33.792;151.032;2023-11-21T07:09:52;100979.81;;;22.55;72.22
81162;BME280;70638;-33.792;151.032;2023-11-21T07:12:21;100984.78;;;22.48;71.44
81162;BME280;70638;-33.792;151.032;2023-11-21T07:14:52;100988.72;;;22.34;72.02
81162;BME280;70638;-33.792;151.032;2023-11-21T07:17:25;100991.56;;;22.37;72.93
81162;BME280;70638;-33.792;151.032;2023-11-21T07:19:54;100999.91;;;22.36;73.18
81162;BME280;70638;-33.792;151.032;2023-11-21T07:22:24;101004.27;;;22.46;74.24
81162;BME280;70638;-33.792;151.032;2023-11-21T07:24:57;101020.88;;;22.41;73.33
81162;BME280;70638;-33.792;151.032;2023-11-21T07:27:29;101015.52;;;22.22;73.85
81162;BME280;70638;-33.792;151.032;2023-11-21T07:29:55;101021.81;;;22.02;73.55
81162;BME280;70638;-33.792;151.032;2023-11-21T07:32:26;101022.80;;;21.96;74.56
81162;BME280;70638;-33.792;151.032;2023-11-21T07:34:55;101036.78;;;21.88;74.80
81162;BME280;70638;-33.792;151.032;2023-11-21T07:37:26;101044.59;;;21.82;76.69
81162;BME280;70638;-33.792;151.032;2023-11-21T07:39:59;101060.62;;;21.71;75.54
81162;BME280;70638;-33.792;151.032;2023-11-21T07:42:29;101069.23;;;21.67;75.83
81162;BME280;70638;-33.792;151.032;2023-11-21T07:44:58;101075.30;;;21.67;76.20
81162;BME280;70638;-33.792;151.032;2023-11-21T07:47:29;101088.66;;;21.50;76.51
81162;BME280;70638;-33.792;151.032;2023-11-21T07:50:05;101097.23;;;21.42;77.51
81162;BME280;70638;-33.792;151.032;2023-11-21T07:52:32;101105.45;;;21.28;77.38
81162;BME280;70638;-33.792;151.032;2023-11-21T07:54:59;101109.59;;;21.24;78.46
81162;BME280;70638;-33.792;151.032;2023-11-21T07:57:29;101110.83;;;21.15;78.92
81162;BME280;70638;-33.792;151.032;2023-11-21T07:59:59;101123.41;;;21.01;79.28
81162;BME280;70638;-33.792;151.032;2023-11-21T08:02:30;101127.24;;;20.92;79.71
81162;BME280;70638;-33.792;151.032;2023-11-21T08:05:01;101135.22;;;20.81;80.41
81162;BME280;70638;-33.792;151.032;2023-11-21T08:07:31;101141.85;;;20.77;81.03
81162;BME280;70638;-33.792;151.032;2023-11-21T08:12:33;101149.34;;;20.63;82.14
81162;BME280;70638;-33.792;151.032;2023-11-21T08:15:05;101156.55;;;20.61;82.58
81162;BME280;70638;-33.792;151.032;2023-11-21T08:17:35;101166.65;;;20.59;82.76
81162;BME280;70638;-33.792;151.032;2023-11-21T08:20:05;101162.59;;;20.56;82.65
81162;BME280;70638;-33.792;151.032;2023-11-21T08:22:34;101158.05;;;20.52;83.46
81162;BME280;70638;-33.792;151.032;2023-11-21T08:25:07;101159.41;;;20.43;83.02
81162;BME280;70638;-33.792;151.032;2023-11-21T08:27:36;101168.70;;;20.37;83.98
81162;BME280;70638;-33.792;151.032;2023-11-21T08:30:07;101175.84;;;20.30;83.78
81162;BME280;70638;-33.792;151.032;2023-11-21T08:32:44;101180.27;;;20.21;84.38
81162;BME280;70638;-33.792;151.032;2023-11-21T08:35:09;101179.20;;;20.14;84.82
81162;BME280;70638;-33.792;151.032;2023-11-21T08:37:46;101186.58;;;20.09;85.58
81162;BME280;70638;-33.792;151.032;2023-11-21T08:40:14;101196.44;;;20.03;85.67
81162;BME280;70638;-33.792;151.032;2023-11-21T08:42:38;101196.12;;;19.98;86.01
81162;BME280;70638;-33.792;151.032;2023-11-21T08:45:11;101187.39;;;19.90;86.68
81162;BME280;70638;-33.792;151.032;2023-11-21T08:47:39;101182.11;;;19.86;86.99
81162;BME280;70638;-33.792;151.032;2023-11-21T08:50:11;101185.48;;;19.78;87.47
81162;BME280;70638;-33.792;151.032;2023-11-21T08:52:40;101192.59;;;19.74;87.82
81162;BME280;70638;-33.792;151.032;2023-11-21T08:55:23;101190.64;;;19.74;87.91
81162;BME280;70638;-33.792;151.032;2023-11-21T08:57:41;101194.22;;;19.71;88.14
81162;BME280;70638;-33.792;151.032;2023-11-21T09:00:19;101197.77;;;19.67;88.34
81162;BME280;70638;-33.792;151.032;2023-11-21T09:02:44;101206.01;;;19.64;89.02
81162;BME280;70638;-33.792;151.032;2023-11-21T09:05:12;101228.73;;;19.59;89.36
81162;BME280;70638;-33.792;151.032;2023-11-21T09:07:42;101237.11;;;19.55;89.42
81162;BME280;70638;-33.792;151.032;2023-11-21T09:10:13;101237.42;;;19.63;89.51
81162;BME280;70638;-33.792;151.032;2023-11-21T09:12:46;101225.47;;;19.69;89.34
81162;BME280;70638;-33.792;151.032;2023-11-21T09:15:21;101226.20;;;19.75;88.85
81162;BME280;70638;-33.792;151.032;2023-11-21T09:17:46;101222.80;;;19.78;89.34
81162;BME280;70638;-33.792;151.032;2023-11-21T09:20:17;101228.67;;;19.79;89.33
81162;BME280;70638;-33.792;151.032;2023-11-21T09:22:48;101236.36;;;19.78;88.62
81162;BME280;70638;-33.792;151.032;2023-11-21T09:25:16;101237.59;;;19.83;88.83
81162;BME280;70638;-33.792;151.032;2023-11-21T09:27:48;101235.70;;;19.86;88.33
81162;BME280;70638;-33.792;151.032;2023-11-21T09:30:20;101236.68;;;19.81;88.30
81162;BME280;70638;-33.792;151.032;2023-11-21T09:32:48;101245.81;;;19.80;88.42
81162;BME280;70638;-33.792;151.032;2023-11-21T09:37:49;101250.10;;;19.72;88.91
81162;BME280;70638;-33.792;151.032;2023-11-21T09:40:22;101255.50;;;19.73;88.47
81162;BME280;70638;-33.792;151.032;2023-11-21T09:42:55;101257.02;;;19.72;88.05
81162;BME280;70638;-33.792;151.032;2023-11-21T09:45:27;101271.17;;;19.74;88.80
81162;BME280;70638;-33.792;151.032;2023-11-21T09:47:53;101282.44;;;19.72;87.81
81162;BME280;70638;-33.792;151.032;2023-11-21T09:50:25;101281.17;;;19.74;85.92
81162;BME280;70638;-33.792;151.032;2023-11-21T09:52:58;101290.14;;;19.75;85.88
81162;BME280;70638;-33.792;151.032;2023-11-21T09:55:31;101296.77;;;19.79;84.85
81162;BME280;70638;-33.792;151.032;2023-11-21T09:57:56;101302.47;;;19.82;84.93
81162;BME280;70638;-33.792;151.032;2023-11-21T10:00:26;101303.48;;;19.82;84.74
81162;BME280;70638;-33.792;151.032;2023-11-21T10:02:58;101304.17;;;19.82;84.89
81162;BME280;70638;-33.792;151.032;2023-11-21T10:05:27;101309.88;;;19.83;85.16
81162;BME280;70638;-33.792;151.032;2023-11-21T10:07:59;101318.68;;;19.84;85.35
81162;BME280;70638;-33.792;151.032;2023-11-21T10:10:29;101320.20;;;19.85;84.18
81162;BME280;70638;-33.792;151.032;2023-11-21T10:13:03;101311.61;;;19.83;84.27
81162;BME280;70638;-33.792;151.032;2023-11-21T10:15:30;101313.94;;;19.76;84.60
81162;BME280;70638;-33.792;151.032;2023-11-21T10:18:05;101318.83;;;19.68;85.11
81162;BME280;70638;-33.792;151.032;2023-11-21T10:20:32;101323.16;;;19.60;85.51
81162;BME280;70638;-33.792;151.032;2023-11-21T10:23:01;101335.78;;;19.54;86.22
81162;BME280;70638;-33.792;151.032;2023-11-21T10:25:31;101340.76;;;19.47;86.24
81162;BME280;70638;-33.792;151.032;2023-11-21T10:28:04;101348.02;;;19.42;86.95
81162;BME280;70638;-33.792;151.032;2023-11-21T10:30:36;101353.56;;;19.35;87.31
81162;BME280;70638;-33.792;151.032;2023-11-21T10:33:05;101350.85;;;19.36;87.20
81162;BME280;70638;-33.792;151.032;2023-11-21T10:35:48;101349.70;;;19.43;87.15
81162;BME280;70638;-33.792;151.032;2023-11-21T10:38:04;101351.07;;;19.53;86.51
81162;BME280;70638;-33.792;151.032;2023-11-21T10:40:41;101358.82;;;19.63;86.66
81162;BME280;70638;-33.792;151.032;2023-11-21T10:43:09;101367.88;;;19.69;86.31
81162;BME280;70638;-33.792;151.032;2023-11-21T10:45:39;101366.84;;;19.76;85.80
81162;BME280;70638;-33.792;151.032;2023-11-21T10:48:08;101361.36;;;19.80;85.80
81162;BME280;70638;-33.792;151.032;2023-11-21T10:50:38;101357.62;;;19.78;85.20
81162;BME280;70638;-33.792;151.032;2023-11-21T10:53:08;101357.95;;;19.78;85.39
81162;BME280;70638;-33.792;151.032;2023-11-21T10:55:39;101362.05;;;19.77;85.40
81162;BME280;70638;-33.792;151.032;2023-11-21T10:58:14;101362.23;;;19.74;85.14
81162;BME280;70638;-33.792;151.032;2023-11-21T11:03:17;101371.72;;;19.71;84.90
81162;BME280;70638;-33.792;151.032;2023-11-21T11:05:43;101372.46;;;19.72;84.04
81162;BME280;70638;-33.792;151.032;2023-11-21T11:08:13;101374.19;;;19.78;84.34
81162;BME280;70638;-33.792;151.032;2023-11-21T11:10:44;101373.67;;;19.76;84.41
81162;BME280;70638;-33.792;151.032;2023-11-21T11:13:17;101378.95;;;19.75;84.67
81162;BME280;70638;-33.792;151.032;2023-11-21T11:15:48;101379.66;;;19.73;84.40
81162;BME280;70638;-33.792;151.032;2023-11-21T11:18:16;101379.06;;;19.73;84.54
81162;BME280;70638;-33.792;151.032;2023-11-21T11:20:51;101376.39;;;19.74;84.73
81162;BME280;70638;-33.792;151.032;2023-11-21T11:23:38;101367.09;;;19.76;84.75
81162;BME280;70638;-33.792;151.032;2023-11-21T11:28:22;101373.67;;;19.74;85.28
81162;BME280;70638;-33.792;151.032;2023-11-21T11:31:00;101373.06;;;19.72;85.83
81162;BME280;70638;-33.792;151.032;2023-11-21T11:33:36;101377.00;;;19.67;86.58
81162;BME280;70638;-33.792;151.032;2023-11-21T11:36:10;101378.52;;;19.61;86.93
81162;BME280;70638;-33.792;151.032;2023-11-21T11:38:31;101377.50;;;19.58;86.81
81162;BME280;70638;-33.792;151.032;2023-11-21T11:40:53;101377.76;;;19.58;87.02
81162;BME280;70638;-33.792;151.032;2023-11-21T11:43:28;101372.30;;;19.54;86.63
81162;BME280;70638;-33.792;151.032;2023-11-21T11:45:59;101369.41;;;19.50;87.06
81162;BME280;70638;-33.792;151.032;2023-11-21T11:48:22;101366.61;;;19.47;87.28
81162;BME280;70638;-33.792;151.032;2023-11-21T11:51:09;101357.39;;;19.43;87.66
81162;BME280;70638;-33.792;151.032;2023-11-21T11:53:22;101352.38;;;19.31;88.40
81162;BME280;70638;-33.792;151.032;2023-11-21T11:58:36;101352.41;;;19.09;90.13
81162;BME280;70638;-33.792;151.032;2023-11-21T12:00:56;101354.71;;;19.01;90.64
81162;BME280;70638;-33.792;151.032;2023-11-21T12:03:24;101358.53;;;19.05;90.75
81162;BME280;70638;-33.792;151.032;2023-11-21T12:06:01;101348.97;;;18.95;90.49
81162;BME280;70638;-33.792;151.032;2023-11-21T12:08:29;101341.81;;;18.87;91.53
81162;BME280;70638;-33.792;151.032;2023-11-21T12:10:57;101335.85;;;18.80;91.57
81162;BME280;70638;-33.792;151.032;2023-11-21T12:13:28;101330.55;;;18.74;92.06
81162;BME280;70638;-33.792;151.032;2023-11-21T12:16:06;101323.19;;;18.56;92.79
81162;BME280;70638;-33.792;151.032;2023-11-21T12:18:28;101331.00;;;18.42;93.99
81162;BME280;70638;-33.792;151.032;2023-11-21T12:20:57;101329.77;;;18.33;94.46
81162;BME280;70638;-33.792;151.032;2023-11-21T12:23:28;101331.01;;;18.23;94.79
81162;BME280;70638;-33.792;151.032;2023-11-21T12:25:59;101331.69;;;18.16;95.49
81162;BME280;70638;-33.792;151.032;2023-11-21T12:28:30;101325.02;;;18.11;96.23
81162;BME280;70638;-33.792;151.032;2023-11-21T12:31:00;101322.72;;;18.05;96.34
81162;BME280;70638;-33.792;151.032;2023-11-21T12:33:32;101320.98;;;17.98;96.88
81162;BME280;70638;-33.792;151.032;2023-11-21T12:36:01;101317.19;;;17.90;97.17
81162;BME280;70638;-33.792;151.032;2023-11-21T12:41:02;101312.67;;;17.83;97.50
81162;BME280;70638;-33.792;151.032;2023-11-21T12:43:33;101313.09;;;17.77;98.09
81162;BME280;70638;-33.792;151.032;2023-11-21T12:46:09;101314.45;;;17.74;98.57
81162;BME280;70638;-33.792;151.032;2023-11-21T12:48:33;101310.88;;;17.75;99.03
81162;BME280;70638;-33.792;151.032;2023-11-21T12:51:06;101312.33;;;17.73;99.17